sensor_id;sensor_type;location;lat;lon;timestamp;temperature;humidity
16578;DHT22;8401;52.528;13.340;2022-12-24T00:01:24;6.80;99.90
16578;DHT22;8401;52.528;13.340;2022-12-24T00:03:50;6.70;99.90
16578;DHT22;8401;52.528;13.340;2022-12-24T00:06:19;6.50;99.90
16578;DHT22;8401;52.528;13.340;2022-12-24T00:08:45;6.70;99.90
16578;DHT22;8401;52.528;13.340;2022-12-24T00:11:10;6.60;99.90
16578;DHT22;8401;52.528;13.340;2022-12-24T00:13:36;6.50;99.90
16578;DHT22;8401;52.528;13.340;2022-12-24T00:16:02;6.60;99.90
16578;DHT22;8401;52.528;13.340;2022-12-24T00:18:27;6.80;99.90
16578;DHT22;8401;52.528;13.340;2022-12-24T00:20:53;6.70;99.90
16578;DHT22;8401;52.528;13.340;2022-12-24T00:23:19;6.80;99.90
16578;DHT22;8401;52.528;13.340;2022-12-24T00:25:45;6.90;99.90
16578;DHT22;8401;52.528;13.340;2022-12-24T00:28:11;6.90;99.90
16578;DHT22;8401;52.528;13.340;2022-12-24T00:30:38;6.90;99.90
16578;DHT22;8401;52.528;13.340;2022-12-24T00:33:04;6.80;99.90
16578;DHT22;8401;52.528;13.340;2022-12-24T00:35:32;6.80;99.90
16578;DHT22;8401;52.528;13.340;2022-12-24T00:37:57;6.90;99.90
16578;DHT22;8401;52.528;13.340;2022-12-24T00:40:23;6.80;99.90
16578;DHT22;8401;52.528;13.340;2022-12-24T00:42:48;6.80;99.90
16578;DHT22;8401;52.528;13.340;2022-12-24T00:45:14;6.80;99.90
16578;DHT22;8401;52.528;13.340;2022-12-24T00:47:40;6.80;99.90
16578;DHT22;8401;52.528;13.340;2022-12-24T00:50:06;6.60;99.90
16578;DHT22;8401;52.528;13.340;2022-12-24T00:52:32;6.80;99.90
16578;DHT22;8401;52.528;13.340;2022-12-24T00:54:57;6.80;99.90
16578;DHT22;8401;52.528;13.340;2022-12-24T00:57:23;6.70;99.90
16578;DHT22;8401;52.528;13.340;2022-12-24T00:59:49;6.80;99.90
16578;DHT22;8401;52.528;13.340;2022-12-24T01:02:14;6.70;99.90
16578;DHT22;8401;52.528;13.340;2022-12-24T01:04:40;6.80;99.90
16578;DHT22;8401;52.528;13.340;2022-12-24T01:07:24;6.80;99.90
16578;DHT22;8401;52.528;13.340;2022-12-24T01:09:50;6.80;99.90
16578;DHT22;8401;52.528;13.340;2022-12-24T01:12:15;6.70;99.90
16578;DHT22;8401;52.528;13.340;2022-12-24T01:14:41;6.70;99.90
16578;DHT22;8401;52.528;13.340;2022-12-24T01:17:07;6.80;99.90
16578;DHT22;8401;52.528;13.340;2022-12-24T01:19:32;6.70;99.90
16578;DHT22;8401;52.528;13.340;2022-12-24T01:21:58;6.80;99.90
16578;DHT22;8401;52.528;13.340;2022-12-24T01:24:24;6.70;99.90
16578;DHT22;8401;52.528;13.340;2022-12-24T01:26:49;6.80;99.90
16578;DHT22;8401;52.528;13.340;2022-12-24T01:29:15;6.50;99.90
16578;DHT22;8401;52.528;13.340;2022-12-24T01:31:41;6.60;99.90
16578;DHT22;8401;52.528;13.340;2022-12-24T01:34:06;6.70;99.90
16578;DHT22;8401;52.528;13.340;2022-12-24T01:36:32;6.70;99.90
16578;DHT22;8401;52.528;13.340;2022-12-24T01:38:58;6.70;99.90
16578;DHT22;8401;52.528;13.340;2022-12-24T01:41:24;6.70;99.90
16578;DHT22;8401;52.528;13.340;2022-12-24T01:44:42;6.80;99.90
16578;DHT22;8401;52.528;13.340;2022-12-24T01:49:38;6.60;99.90
16578;DHT22;8401;52.528;13.340;2022-12-24T01:52:10;6.70;99.90
16578;DHT22;8401;52.528;13.340;2022-12-24T01:54:43;6.50;99.90
16578;DHT22;8401;52.528;13.340;2022-12-24T01:57:21;6.50;99.90
16578;DHT22;8401;52.528;13.340;2022-12-24T01:59:50;6.40;99.90
16578;DHT22;8401;52.528;13.340;2022-12-24T02:02:18;6.60;99.90
16578;DHT22;8401;52.528;13.340;2022-12-24T02:07:48;6.80;99.90
16578;DHT22;8401;52.528;13.340;2022-12-24T02:10:15;6.70;99.90
16578;DHT22;8401;52.528;13.340;2022-12-24T02:12:41;6.70;99.90
16578;DHT22;8401;52.528;13.340;2022-12-24T02:15:10;6.60;99.90
16578;DHT22;8401;52.528;13.340;2022-12-24T02:29:13;6.40;99.90
16578;DHT22;8401;52.528;13.340;2022-12-24T02:31:46;6.30;99.90
16578;DHT22;8401;52.528;13.340;2022-12-24T02:34:26;6.30;99.90
16578;DHT22;8401;52.528;13.340;2022-12-24T02:37:16;6.30;99.90
16578;DHT22;8401;52.528;13.340;2022-12-24T02:40:06;6.30;99.90
16578;DHT22;8401;52.528;13.340;2022-12-24T02:42:39;6.30;99.90
16578;DHT22;8401;52.528;13.340;2022-12-24T02:45:10;6.30;99.90
16578;DHT22;8401;52.528;13.340;2022-12-24T02:47:38;6.30;99.90
16578;DHT22;8401;52.528;13.340;2022-12-24T02:50:07;6.40;99.90
16578;DHT22;8401;52.528;13.340;2022-12-24T02:52:35;6.60;99.90
16578;DHT22;8401;52.528;13.340;2022-12-24T02:55:07;6.60;99.90
16578;DHT22;8401;52.528;13.340;2022-12-24T03:00:27;6.40;99.90
16578;DHT22;8401;52.528;13.340;2022-12-24T03:03:29;6.70;99.90
16578;DHT22;8401;52.528;13.340;2022-12-24T03:09:27;6.70;99.90
16578;DHT22;8401;52.528;13.340;2022-12-24T03:12:17;6.70;99.90
16578;DHT22;8401;52.528;13.340;2022-12-24T03:14:47;6.80;99.90
16578;DHT22;8401;52.528;13.340;2022-12-24T03:17:13;6.80;99.90
16578;DHT22;8401;52.528;13.340;2022-12-24T03:19:39;6.90;99.90
16578;DHT22;8401;52.528;13.340;2022-12-24T03:22:08;6.70;99.90
16578;DHT22;8401;52.528;13.340;2022-12-24T03:24:36;6.80;99.90
16578;DHT22;8401;52.528;13.340;2022-12-24T03:27:04;6.80;99.90
16578;DHT22;8401;52.528;13.340;2022-12-24T03:29:31;6.80;99.90
16578;DHT22;8401;52.528;13.340;2022-12-24T03:32:01;6.60;99.90
16578;DHT22;8401;52.528;13.340;2022-12-24T03:34:28;6.80;99.90
16578;DHT22;8401;52.528;13.340;2022-12-24T03:36:53;6.70;99.90
16578;DHT22;8401;52.528;13.340;2022-12-24T03:39:19;6.60;99.90
16578;DHT22;8401;52.528;13.340;2022-12-24T03:41:45;6.50;99.90
16578;DHT22;8401;52.528;13.340;2022-12-24T03:44:10;6.60;99.90
16578;DHT22;8401;52.528;13.340;2022-12-24T03:46:36;6.50;99.90
16578;DHT22;8401;52.528;13.340;2022-12-24T03:49:02;6.40;99.90
16578;DHT22;8401;52.528;13.340;2022-12-24T03:51:28;6.30;99.90
16578;DHT22;8401;52.528;13.340;2022-12-24T03:53:55;6.30;99.90
16578;DHT22;8401;52.528;13.340;2022-12-24T03:56:20;6.40;99.90
16578;DHT22;8401;52.528;13.340;2022-12-24T03:58:46;6.40;99.90
16578;DHT22;8401;52.528;13.340;2022-12-24T04:01:12;6.40;99.90
16578;DHT22;8401;52.528;13.340;2022-12-24T04:03:37;6.40;99.90
16578;DHT22;8401;52.528;13.340;2022-12-24T04:06:12;6.40;99.90
16578;DHT22;8401;52.528;13.340;2022-12-24T04:08:39;6.50;99.90
16578;DHT22;8401;52.528;13.340;2022-12-24T04:11:06;6.60;99.90
16578;DHT22;8401;52.528;13.340;2022-12-24T04:13:32;6.60;99.90
16578;DHT22;8401;52.528;13.340;2022-12-24T04:16:04;6.90;99.90
16578;DHT22;8401;52.528;13.340;2022-12-24T04:18:30;6.90;99.90
16578;DHT22;8401;52.528;13.340;2022-12-24T04:20:57;6.90;99.90
16578;DHT22;8401;52.528;13.340;2022-12-24T04:23:23;6.70;99.90
16578;DHT22;8401;52.528;13.340;2022-12-24T04:25:49;6.50;99.90
16578;DHT22;8401;52.528;13.340;2022-12-24T04:28:14;6.40;99.90
16578;DHT22;8401;52.528;13.340;2022-12-24T04:30:41;6.30;99.90
16578;DHT22;8401;52.528;13.340;2022-12-24T04:33:07;6.40;99.90
16578;DHT22;8401;52.528;13.340;2022-12-24T04:35:33;6.40;99.90
16578;DHT22;8401;52.528;13.340;2022-12-24T04:38:02;6.40;99.90
16578;DHT22;8401;52.528;13.340;2022-12-24T04:40:28;6.40;99.90
16578;DHT22;8401;52.528;13.340;2022-12-24T04:42:54;6.40;99.90
16578;DHT22;8401;52.528;13.340;2022-12-24T04:45:19;6.30;99.90
16578;DHT22;8401;52.528;13.340;2022-12-24T04:47:45;6.40;99.90
16578;DHT22;8401;52.528;13.340;2022-12-24T04:50:10;6.60;99.90
16578;DHT22;8401;52.528;13.340;2022-12-24T04:52:36;6.70;99.90
16578;DHT22;8401;52.528;13.340;2022-12-24T04:55:03;6.90;99.90
16578;DHT22;8401;52.528;13.340;2022-12-24T04:57:33;6.70;99.90
16578;DHT22;8401;52.528;13.340;2022-12-24T05:00:00;6.70;99.90
16578;DHT22;8401;52.528;13.340;2022-12-24T05:02:26;6.80;99.90
16578;DHT22;8401;52.528;13.340;2022-12-24T05:04:51;6.80;99.90
16578;DHT22;8401;52.528;13.340;2022-12-24T05:07:17;6.90;99.90
16578;DHT22;8401;52.528;13.340;2022-12-24T05:09:43;6.70;99.90
16578;DHT22;8401;52.528;13.340;2022-12-24T05:12:08;6.60;99.90
16578;DHT22;8401;52.528;13.340;2022-12-24T05:14:34;6.70;99.90
16578;DHT22;8401;52.528;13.340;2022-12-24T05:16:59;6.70;99.90
16578;DHT22;8401;52.528;13.340;2022-12-24T05:19:25;6.80;99.90
16578;DHT22;8401;52.528;13.340;2022-12-24T05:21:51;6.70;99.90
16578;DHT22;8401;52.528;13.340;2022-12-24T05:24:35;6.70;99.90
16578;DHT22;8401;52.528;13.340;2022-12-24T05:27:19;6.90;99.90
16578;DHT22;8401;52.528;13.340;2022-12-24T05:29:45;7.00;99.90
16578;DHT22;8401;52.528;13.340;2022-12-24T05:32:11;7.00;99.90
16578;DHT22;8401;52.528;13.340;2022-12-24T05:34:37;7.00;99.90
16578;DHT22;8401;52.528;13.340;2022-12-24T05:37:03;6.80;99.90
16578;DHT22;8401;52.528;13.340;2022-12-24T05:39:28;6.90;99.90
16578;DHT22;8401;52.528;13.340;2022-12-24T05:41:54;6.80;99.90
16578;DHT22;8401;52.528;13.340;2022-12-24T05:44:20;6.80;99.90
16578;DHT22;8401;52.528;13.340;2022-12-24T05:46:45;6.80;99.90
16578;DHT22;8401;52.528;13.340;2022-12-24T05:49:11;6.80;99.90
16578;DHT22;8401;52.528;13.340;2022-12-24T05:51:37;6.80;99.90
16578;DHT22;8401;52.528;13.340;2022-12-24T05:54:04;6.90;99.90
16578;DHT22;8401;52.528;13.340;2022-12-24T05:56:30;6.90;99.90
16578;DHT22;8401;52.528;13.340;2022-12-24T05:58:56;7.00;99.90
16578;DHT22;8401;52.528;13.340;2022-12-24T06:01:22;6.90;99.90
16578;DHT22;8401;52.528;13.340;2022-12-24T06:03:48;6.90;99.90
16578;DHT22;8401;52.528;13.340;2022-12-24T06:06:21;6.90;99.90
16578;DHT22;8401;52.528;13.340;2022-12-24T06:08:48;6.90;99.90
16578;DHT22;8401;52.528;13.340;2022-12-24T06:11:16;6.90;99.90
16578;DHT22;8401;52.528;13.340;2022-12-24T06:13:43;6.70;99.90
16578;DHT22;8401;52.528;13.340;2022-12-24T06:16:12;6.80;99.90
16578;DHT22;8401;52.528;13.340;2022-12-24T06:18:38;6.70;99.90
16578;DHT22;8401;52.528;13.340;2022-12-24T06:21:05;6.70;99.90
16578;DHT22;8401;52.528;13.340;2022-12-24T06:23:34;6.80;99.90
16578;DHT22;8401;52.528;13.340;2022-12-24T06:26:00;6.90;99.90
16578;DHT22;8401;52.528;13.340;2022-12-24T06:28:30;6.80;99.90
16578;DHT22;8401;52.528;13.340;2022-12-24T06:30:56;6.80;99.90
16578;DHT22;8401;52.528;13.340;2022-12-24T06:33:22;6.80;99.90
16578;DHT22;8401;52.528;13.340;2022-12-24T06:35:48;6.70;99.90
16578;DHT22;8401;52.528;13.340;2022-12-24T06:38:14;6.80;99.90
16578;DHT22;8401;52.528;13.340;2022-12-24T06:40:41;6.80;99.90
16578;DHT22;8401;52.528;13.340;2022-12-24T06:43:08;6.70;99.90
16578;DHT22;8401;52.528;13.340;2022-12-24T06:45:33;6.60;99.90
16578;DHT22;8401;52.528;13.340;2022-12-24T06:48:00;6.60;99.90
16578;DHT22;8401;52.528;13.340;2022-12-24T06:50:25;6.50;99.90
16578;DHT22;8401;52.528;13.340;2022-12-24T06:52:51;6.40;99.90
16578;DHT22;8401;52.528;13.340;2022-12-24T06:55:17;6.50;99.90
16578;DHT22;8401;52.528;13.340;2022-12-24T06:57:42;6.40;99.90
16578;DHT22;8401;52.528;13.340;2022-12-24T07:00:09;6.60;99.90
16578;DHT22;8401;52.528;13.340;2022-12-24T07:02:39;6.60;99.90
16578;DHT22;8401;52.528;13.340;2022-12-24T07:05:06;6.60;99.90
16578;DHT22;8401;52.528;13.340;2022-12-24T07:07:31;6.60;99.90
16578;DHT22;8401;52.528;13.340;2022-12-24T07:09:57;6.60;99.90
16578;DHT22;8401;52.528;13.340;2022-12-24T07:12:23;6.40;99.90
16578;DHT22;8401;52.528;13.340;2022-12-24T07:14:48;6.50;99.90
16578;DHT22;8401;52.528;13.340;2022-12-24T07:17:14;6.50;99.90
16578;DHT22;8401;52.528;13.340;2022-12-24T07:19:39;6.50;99.90
16578;DHT22;8401;52.528;13.340;2022-12-24T07:22:05;6.40;99.90
16578;DHT22;8401;52.528;13.340;2022-12-24T07:24:30;6.50;99.90
16578;DHT22;8401;52.528;13.340;2022-12-24T07:26:56;6.50;99.90
16578;DHT22;8401;52.528;13.340;2022-12-24T07:29:22;6.60;99.90
16578;DHT22;8401;52.528;13.340;2022-12-24T07:31:47;6.60;99.90
16578;DHT22;8401;52.528;13.340;2022-12-24T07:34:13;6.60;99.90
16578;DHT22;8401;52.528;13.340;2022-12-24T07:36:39;6.40;99.90
16578;DHT22;8401;52.528;13.340;2022-12-24T07:39:04;6.50;99.90
16578;DHT22;8401;52.528;13.340;2022-12-24T07:41:30;6.60;99.90
16578;DHT22;8401;52.528;13.340;2022-12-24T07:43:55;6.60;99.90
16578;DHT22;8401;52.528;13.340;2022-12-24T07:46:21;6.70;99.90
16578;DHT22;8401;52.528;13.340;2022-12-24T07:48:47;6.60;99.90
16578;DHT22;8401;52.528;13.340;2022-12-24T07:51:12;6.60;99.90
16578;DHT22;8401;52.528;13.340;2022-12-24T07:53:38;6.60;99.90
16578;DHT22;8401;52.528;13.340;2022-12-24T07:56:04;6.60;99.90
16578;DHT22;8401;52.528;13.340;2022-12-24T07:58:30;6.60;99.90
16578;DHT22;8401;52.528;13.340;2022-12-24T08:00:59;6.60;99.90
16578;DHT22;8401;52.528;13.340;2022-12-24T08:03:25;6.60;99.90
16578;DHT22;8401;52.528;13.340;2022-12-24T08:05:51;6.70;99.90
16578;DHT22;8401;52.528;13.340;2022-12-24T08:08:17;6.70;99.90
16578;DHT22;8401;52.528;13.340;2022-12-24T08:10:46;6.70;99.90
16578;DHT22;8401;52.528;13.340;2022-12-24T08:13:13;6.60;99.90
16578;DHT22;8401;52.528;13.340;2022-12-24T08:15:39;6.50;99.90
16578;DHT22;8401;52.528;13.340;2022-12-24T08:18:05;6.40;99.90
16578;DHT22;8401;52.528;13.340;2022-12-24T08:20:30;6.30;99.90
16578;DHT22;8401;52.528;13.340;2022-12-24T08:22:56;6.40;99.90
16578;DHT22;8401;52.528;13.340;2022-12-24T08:25:22;6.40;99.90
16578;DHT22;8401;52.528;13.340;2022-12-24T08:27:47;6.60;99.90
16578;DHT22;8401;52.528;13.340;2022-12-24T08:30:13;6.50;99.90
16578;DHT22;8401;52.528;13.340;2022-12-24T08:32:39;6.50;99.90
16578;DHT22;8401;52.528;13.340;2022-12-24T08:35:05;6.60;99.90
16578;DHT22;8401;52.528;13.340;2022-12-24T08:37:31;6.70;99.90
16578;DHT22;8401;52.528;13.340;2022-12-24T08:39:56;6.70;99.90
16578;DHT22;8401;52.528;13.340;2022-12-24T08:42:22;6.80;99.90
16578;DHT22;8401;52.528;13.340;2022-12-24T08:44:48;6.80;99.90
16578;DHT22;8401;52.528;13.340;2022-12-24T08:47:13;6.70;99.90
16578;DHT22;8401;52.528;13.340;2022-12-24T08:49:39;6.90;99.90
16578;DHT22;8401;52.528;13.340;2022-12-24T08:52:05;6.80;99.90
16578;DHT22;8401;52.528;13.340;2022-12-24T08:54:31;6.80;99.90
16578;DHT22;8401;52.528;13.340;2022-12-24T08:56:57;6.80;99.90
16578;DHT22;8401;52.528;13.340;2022-12-24T08:59:22;6.90;99.90
16578;DHT22;8401;52.528;13.340;2022-12-24T09:01:48;6.80;99.90
16578;DHT22;8401;52.528;13.340;2022-12-24T09:04:14;6.80;99.90
16578;DHT22;8401;52.528;13.340;2022-12-24T09:06:39;6.70;99.90
16578;DHT22;8401;52.528;13.340;2022-12-24T09:09:05;6.60;99.90
16578;DHT22;8401;52.528;13.340;2022-12-24T09:11:33;6.70;99.90
16578;DHT22;8401;52.528;13.340;2022-12-24T09:13:59;6.80;99.90
16578;DHT22;8401;52.528;13.340;2022-12-24T09:16:25;6.60;99.90
16578;DHT22;8401;52.528;13.340;2022-12-24T09:18:50;6.70;99.90
16578;DHT22;8401;52.528;13.340;2022-12-24T09:21:16;6.80;99.90
16578;DHT22;8401;52.528;13.340;2022-12-24T09:23:44;6.90;99.90
16578;DHT22;8401;52.528;13.340;2022-12-24T09:28:40;6.90;99.90
16578;DHT22;8401;52.528;13.340;2022-12-24T09:31:06;6.70;99.90
16578;DHT22;8401;52.528;13.340;2022-12-24T09:33:34;6.70;99.90
16578;DHT22;8401;52.528;13.340;2022-12-24T09:36:01;6.80;99.90
16578;DHT22;8401;52.528;13.340;2022-12-24T09:38:27;6.80;99.90
16578;DHT22;8401;52.528;13.340;2022-12-24T09:40:54;6.70;99.90
16578;DHT22;8401;52.528;13.340;2022-12-24T09:43:22;6.60;99.90
16578;DHT22;8401;52.528;13.340;2022-12-24T09:48:31;6.60;99.90
16578;DHT22;8401;52.528;13.340;2022-12-24T09:51:01;6.50;99.90
16578;DHT22;8401;52.528;13.340;2022-12-24T09:54:09;6.60;99.90
16578;DHT22;8401;52.528;13.340;2022-12-24T09:56:40;6.90;99.90
16578;DHT22;8401;52.528;13.340;2022-12-24T09:59:15;6.70;99.90
16578;DHT22;8401;52.528;13.340;2022-12-24T10:01:42;6.60;99.90
16578;DHT22;8401;52.528;13.340;2022-12-24T10:04:16;6.60;99.90
16578;DHT22;8401;52.528;13.340;2022-12-24T10:15:34;6.50;99.90
16578;DHT22;8401;52.528;13.340;2022-12-24T10:18:26;6.60;99.90
16578;DHT22;8401;52.528;13.340;2022-12-24T10:21:05;6.60;99.90
16578;DHT22;8401;52.528;13.340;2022-12-24T10:26:22;6.70;99.90
16578;DHT22;8401;52.528;13.340;2022-12-24T10:29:31;6.70;99.90
16578;DHT22;8401;52.528;13.340;2022-12-24T10:34:53;6.90;99.90
16578;DHT22;8401;52.528;13.340;2022-12-24T10:37:23;6.90;99.90
16578;DHT22;8401;52.528;13.340;2022-12-24T10:39:49;6.90;99.90
16578;DHT22;8401;52.528;13.340;2022-12-24T10:42:16;7.00;99.90
16578;DHT22;8401;52.528;13.340;2022-12-24T10:44:46;6.90;99.90
16578;DHT22;8401;52.528;13.340;2022-12-24T10:47:14;7.00;99.90
16578;DHT22;8401;52.528;13.340;2022-12-24T10:50:32;7.00;99.90
16578;DHT22;8401;52.528;13.340;2022-12-24T10:52:40;7.00;99.90
16578;DHT22;8401;52.528;13.340;2022-12-24T10:57:38;7.10;99.90
16578;DHT22;8401;52.528;13.340;2022-12-24T11:00:06;7.10;99.90
16578;DHT22;8401;52.528;13.340;2022-12-24T11:02:39;7.20;99.90
16578;DHT22;8401;52.528;13.340;2022-12-24T11:05:30;7.10;99.90
16578;DHT22;8401;52.528;13.340;2022-12-24T11:08:01;7.10;99.90
16578;DHT22;8401;52.528;13.340;2022-12-24T11:10:27;7.10;99.90
16578;DHT22;8401;52.528;13.340;2022-12-24T11:12:52;7.10;99.90
16578;DHT22;8401;52.528;13.340;2022-12-24T11:15:22;7.10;99.90
16578;DHT22;8401;52.528;13.340;2022-12-24T11:18:11;7.10;99.90
16578;DHT22;8401;52.528;13.340;2022-12-24T11:20:37;7.10;99.90
16578;DHT22;8401;52.528;13.340;2022-12-24T11:23:03;7.10;99.90
16578;DHT22;8401;52.528;13.340;2022-12-24T11:25:31;7.20;99.90
16578;DHT22;8401;52.528;13.340;2022-12-24T11:28:11;7.20;99.90
16578;DHT22;8401;52.528;13.340;2022-12-24T11:30:37;7.20;99.90
16578;DHT22;8401;52.528;13.340;2022-12-24T11:35:33;7.30;99.90
16578;DHT22;8401;52.528;13.340;2022-12-24T11:43:03;7.30;99.90
16578;DHT22;8401;52.528;13.340;2022-12-24T11:45:31;7.30;99.90
16578;DHT22;8401;52.528;13.340;2022-12-24T11:47:58;7.50;99.90
16578;DHT22;8401;52.528;13.340;2022-12-24T11:50:32;7.50;99.90
16578;DHT22;8401;52.528;13.340;2022-12-24T11:55:43;7.60;99.90
16578;DHT22;8401;52.528;13.340;2022-12-24T12:03:52;7.70;99.90
16578;DHT22;8401;52.528;13.340;2022-12-24T12:06:41;7.70;99.90
16578;DHT22;8401;52.528;13.340;2022-12-24T12:09:18;7.70;99.90
16578;DHT22;8401;52.528;13.340;2022-12-24T12:11:55;7.80;99.90
16578;DHT22;8401;52.528;13.340;2022-12-24T12:14:29;7.80;99.90
16578;DHT22;8401;52.528;13.340;2022-12-24T12:19:50;7.80;99.90
16578;DHT22;8401;52.528;13.340;2022-12-24T12:27:55;8.00;99.90
16578;DHT22;8401;52.528;13.340;2022-12-24T12:30:22;8.10;99.90
16578;DHT22;8401;52.528;13.340;2022-12-24T12:35:39;8.20;99.90
16578;DHT22;8401;52.528;13.340;2022-12-24T12:46:30;8.10;99.90
16578;DHT22;8401;52.528;13.340;2022-12-24T12:49:11;8.10;99.90
16578;DHT22;8401;52.528;13.340;2022-12-24T12:52:02;8.20;99.90
16578;DHT22;8401;52.528;13.340;2022-12-24T12:54:50;8.20;99.90
16578;DHT22;8401;52.528;13.340;2022-12-24T12:57:20;8.20;99.90
16578;DHT22;8401;52.528;13.340;2022-12-24T13:00:07;8.20;99.90
16578;DHT22;8401;52.528;13.340;2022-12-24T13:07:49;8.30;99.90
16578;DHT22;8401;52.528;13.340;2022-12-24T13:10:40;8.40;99.90
16578;DHT22;8401;52.528;13.340;2022-12-24T13:21:42;8.50;99.90
16578;DHT22;8401;52.528;13.340;2022-12-24T13:24:21;8.50;99.90
16578;DHT22;8401;52.528;13.340;2022-12-24T13:34:53;8.60;99.90
16578;DHT22;8401;52.528;13.340;2022-12-24T13:37:34;8.60;99.90
16578;DHT22;8401;52.528;13.340;2022-12-24T13:53:01;8.60;99.90
16578;DHT22;8401;52.528;13.340;2022-12-24T13:55:28;8.60;99.90
16578;DHT22;8401;52.528;13.340;2022-12-24T13:57:59;8.70;99.90
16578;DHT22;8401;52.528;13.340;2022-12-24T14:00:36;8.60;99.90
16578;DHT22;8401;52.528;13.340;2022-12-24T14:03:15;8.60;99.90
16578;DHT22;8401;52.528;13.340;2022-12-24T14:11:07;8.70;99.90
16578;DHT22;8401;52.528;13.340;2022-12-24T14:18:36;8.70;99.90
16578;DHT22;8401;52.528;13.340;2022-12-24T14:21:03;8.60;99.90
16578;DHT22;8401;52.528;13.340;2022-12-24T14:26:16;8.60;99.90
16578;DHT22;8401;52.528;13.340;2022-12-24T14:28:52;8.60;99.90
16578;DHT22;8401;52.528;13.340;2022-12-24T14:31:18;8.60;99.90
16578;DHT22;8401;52.528;13.340;2022-12-24T14:33:44;8.60;99.90
16578;DHT22;8401;52.528;13.340;2022-12-24T14:36:12;8.60;99.90
16578;DHT22;8401;52.528;13.340;2022-12-24T14:38:41;8.70;99.90
16578;DHT22;8401;52.528;13.340;2022-12-24T14:41:24;8.60;99.90
16578;DHT22;8401;52.528;13.340;2022-12-24T14:44:03;8.60;99.90
16578;DHT22;8401;52.528;13.340;2022-12-24T14:49:56;8.50;99.90
16578;DHT22;8401;52.528;13.340;2022-12-24T14:52:37;8.50;99.90
16578;DHT22;8401;52.528;13.340;2022-12-24T14:55:35;8.50;99.90
16578;DHT22;8401;52.528;13.340;2022-12-24T15:01:34;8.50;99.90
16578;DHT22;8401;52.528;13.340;2022-12-24T15:06:42;8.60;99.90
16578;DHT22;8401;52.528;13.340;2022-12-24T15:09:28;8.60;99.90
16578;DHT22;8401;52.528;13.340;2022-12-24T15:11:57;8.50;99.90
16578;DHT22;8401;52.528;13.340;2022-12-24T15:14:25;8.50;99.90
16578;DHT22;8401;52.528;13.340;2022-12-24T15:17:01;8.40;99.90
16578;DHT22;8401;52.528;13.340;2022-12-24T15:19:29;8.40;99.90
16578;DHT22;8401;52.528;13.340;2022-12-24T15:21:55;8.40;99.90
16578;DHT22;8401;52.528;13.340;2022-12-24T15:24:36;8.30;99.90
16578;DHT22;8401;52.528;13.340;2022-12-24T15:27:17;8.30;99.90
16578;DHT22;8401;52.528;13.340;2022-12-24T15:29:45;8.20;99.90
16578;DHT22;8401;52.528;13.340;2022-12-24T15:32:13;8.20;99.90
16578;DHT22;8401;52.528;13.340;2022-12-24T15:34:42;8.20;99.90
16578;DHT22;8401;52.528;13.340;2022-12-24T15:39:54;8.20;99.90
16578;DHT22;8401;52.528;13.340;2022-12-24T15:42:22;8.10;99.90
16578;DHT22;8401;52.528;13.340;2022-12-24T15:45:16;8.10;99.90
16578;DHT22;8401;52.528;13.340;2022-12-24T15:47:51;8.00;99.90
16578;DHT22;8401;52.528;13.340;2022-12-24T15:52:54;8.00;99.90
16578;DHT22;8401;52.528;13.340;2022-12-24T15:55:30;8.00;99.90
16578;DHT22;8401;52.528;13.340;2022-12-24T15:57:58;8.00;99.90
16578;DHT22;8401;52.528;13.340;2022-12-24T16:00:26;7.90;99.90
16578;DHT22;8401;52.528;13.340;2022-12-24T16:03:26;7.90;99.90
16578;DHT22;8401;52.528;13.340;2022-12-24T16:05:59;7.90;99.90
16578;DHT22;8401;52.528;13.340;2022-12-24T16:08:32;7.90;99.90
16578;DHT22;8401;52.528;13.340;2022-12-24T16:13:39;7.80;99.90
16578;DHT22;8401;52.528;13.340;2022-12-24T16:16:11;7.70;99.90
16578;DHT22;8401;52.528;13.340;2022-12-24T16:21:04;7.70;99.90
16578;DHT22;8401;52.528;13.340;2022-12-24T16:23:38;7.70;99.90
16578;DHT22;8401;52.528;13.340;2022-12-24T16:26:04;7.70;99.90
16578;DHT22;8401;52.528;13.340;2022-12-24T16:28:31;7.60;99.90
16578;DHT22;8401;52.528;13.340;2022-12-24T16:30:56;7.60;99.90
16578;DHT22;8401;52.528;13.340;2022-12-24T16:33:22;7.60;99.90
16578;DHT22;8401;52.528;13.340;2022-12-24T16:35:48;7.60;99.90
16578;DHT22;8401;52.528;13.340;2022-12-24T16:38:14;7.60;99.90
16578;DHT22;8401;52.528;13.340;2022-12-24T16:40:41;7.60;99.90
16578;DHT22;8401;52.528;13.340;2022-12-24T16:43:07;7.60;99.90
16578;DHT22;8401;52.528;13.340;2022-12-24T16:45:52;7.60;99.90
16578;DHT22;8401;52.528;13.340;2022-12-24T16:48:20;7.60;99.90
16578;DHT22;8401;52.528;13.340;2022-12-24T16:50:47;7.50;99.90
16578;DHT22;8401;52.528;13.340;2022-12-24T16:53:14;7.50;99.90
16578;DHT22;8401;52.528;13.340;2022-12-24T16:55:40;7.50;99.90
16578;DHT22;8401;52.528;13.340;2022-12-24T16:58:07;7.50;99.90
16578;DHT22;8401;52.528;13.340;2022-12-24T17:00:33;7.50;99.90
16578;DHT22;8401;52.528;13.340;2022-12-24T17:03:00;7.50;99.90
16578;DHT22;8401;52.528;13.340;2022-12-24T17:05:26;7.50;99.90
16578;DHT22;8401;52.528;13.340;2022-12-24T17:07:52;7.40;99.90
16578;DHT22;8401;52.528;13.340;2022-12-24T17:10:18;7.40;99.90
16578;DHT22;8401;52.528;13.340;2022-12-24T17:12:44;7.50;99.90
16578;DHT22;8401;52.528;13.340;2022-12-24T17:15:10;7.50;99.90
16578;DHT22;8401;52.528;13.340;2022-12-24T17:17:36;7.40;99.90
16578;DHT22;8401;52.528;13.340;2022-12-24T17:20:02;7.40;99.90
16578;DHT22;8401;52.528;13.340;2022-12-24T17:22:29;7.40;99.90
16578;DHT22;8401;52.528;13.340;2022-12-24T17:24:55;7.40;99.90
16578;DHT22;8401;52.528;13.340;2022-12-24T17:27:21;7.40;99.90
16578;DHT22;8401;52.528;13.340;2022-12-24T17:29:47;7.40;99.90
16578;DHT22;8401;52.528;13.340;2022-12-24T17:32:13;7.40;99.90
16578;DHT22;8401;52.528;13.340;2022-12-24T17:34:38;7.50;99.90
16578;DHT22;8401;52.528;13.340;2022-12-24T17:37:04;7.50;99.90
16578;DHT22;8401;52.528;13.340;2022-12-24T17:39:30;7.50;99.90
16578;DHT22;8401;52.528;13.340;2022-12-24T17:41:55;7.50;99.90
16578;DHT22;8401;52.528;13.340;2022-12-24T17:44:21;7.60;99.90
16578;DHT22;8401;52.528;13.340;2022-12-24T17:46:47;7.60;99.90
16578;DHT22;8401;52.528;13.340;2022-12-24T17:49:13;7.70;99.90
16578;DHT22;8401;52.528;13.340;2022-12-24T17:51:39;7.70;99.90
16578;DHT22;8401;52.528;13.340;2022-12-24T17:54:05;7.70;99.90
16578;DHT22;8401;52.528;13.340;2022-12-24T17:56:30;7.70;99.90
16578;DHT22;8401;52.528;13.340;2022-12-24T17:58:56;7.70;99.90
16578;DHT22;8401;52.528;13.340;2022-12-24T18:01:24;7.70;99.90
16578;DHT22;8401;52.528;13.340;2022-12-24T18:03:51;7.70;99.90
16578;DHT22;8401;52.528;13.340;2022-12-24T18:06:19;7.80;99.90
16578;DHT22;8401;52.528;13.340;2022-12-24T18:08:46;7.80;99.90
16578;DHT22;8401;52.528;13.340;2022-12-24T18:11:23;7.80;99.90
16578;DHT22;8401;52.528;13.340;2022-12-24T18:13:49;7.80;99.90
16578;DHT22;8401;52.528;13.340;2022-12-24T18:16:21;7.90;99.90
16578;DHT22;8401;52.528;13.340;2022-12-24T18:18:48;7.90;99.90
16578;DHT22;8401;52.528;13.340;2022-12-24T18:21:15;8.00;99.90
16578;DHT22;8401;52.528;13.340;2022-12-24T18:23:43;8.00;99.90
16578;DHT22;8401;52.528;13.340;2022-12-24T18:26:09;8.00;99.90